AFR672 LFPG-FMEE
Flight info
| Callsign | AFR672 |
|---|---|
| Flight time | N/A |
| Altitude | 37000 |
| Route | LANVI DCT DEVDI DCT RIPUS DCT RESIA DCT LAPAB DCT LABIN DCT ELGUS DCT AIOSA DCT NOSTO DCT SALUN N705 BOPIX/ N710 TAKRI P751 LXR M999 JDW G650 RASKA G650 ULONI UG650 KONET DCT XADOX DCT DWA UN304 GIBAX UN304 APKAK UN304 DENLI UN304 UVENA UVENA2R |
| Aircraft | A359/H-SDE2E3GHIJ3J4J5LM1ORWXY/LB1D1 |
Departure
| Time | 2026-05-05 21:38 |
|---|---|
| Airport | Charles de Gaulle International Airport (LFPG) |
Arrival
| Time | N/A |
|---|---|
| Airport | Roland Garros Airport (FMEE) |
| Time | Latitude | Longitude | Altitude | Speed | Heading |
|---|---|---|---|---|---|
| 2026-05-05 20:46 | 49.00110 | 2.57532 | 360 ft | 0 kts | 357° |
| 2026-05-05 21:26 | 49.00096 | 2.57533 | 362 ft | 4 kts | 358° |
| 2026-05-05 21:27 | 49.00075 | 2.57535 | 360 ft | 4 kts | 335° |
| 2026-05-05 21:27 | 49.00061 | 2.57551 | 367 ft | 4 kts | 291° |
| 2026-05-05 21:27 | 49.00056 | 2.57588 | 363 ft | 4 kts | 270° |
| 2026-05-05 21:27 | 49.00056 | 2.57611 | 364 ft | 3 kts | 265° |
| 2026-05-05 21:32 | 49.00056 | 2.57600 | 366 ft | 4 kts | 266° |
| 2026-05-05 21:32 | 49.00053 | 2.57524 | 361 ft | 7 kts | 269° |
| 2026-05-05 21:32 | 49.00049 | 2.57456 | 365 ft | 6 kts | 264° |
| 2026-05-05 21:33 | 49.00045 | 2.57391 | 366 ft | 7 kts | 264° |
| 2026-05-05 21:33 | 49.00033 | 2.57311 | 360 ft | 8 kts | 238° |
| 2026-05-05 21:33 | 48.99986 | 2.57290 | 363 ft | 7 kts | 183° |
| 2026-05-05 21:33 | 48.99960 | 2.57244 | 368 ft | 7 kts | 249° |
| 2026-05-05 21:34 | 48.99949 | 2.57140 | 366 ft | 12 kts | 264° |
| 2026-05-05 21:34 | 48.99941 | 2.57010 | 364 ft | 13 kts | 265° |
| 2026-05-05 21:34 | 48.99934 | 2.56873 | 360 ft | 13 kts | 265° |
| 2026-05-05 21:34 | 48.99927 | 2.56728 | 366 ft | 14 kts | 266° |
| 2026-05-05 21:35 | 48.99919 | 2.56580 | 364 ft | 14 kts | 265° |
| 2026-05-05 21:35 | 48.99911 | 2.56428 | 365 ft | 15 kts | 265° |
| 2026-05-05 21:35 | 48.99902 | 2.56258 | 367 ft | 17 kts | 265° |
| 2026-05-05 21:35 | 48.99895 | 2.56124 | 360 ft | 9 kts | 265° |
| 2026-05-05 21:36 | 48.99890 | 2.56018 | 360 ft | 11 kts | 266° |
| 2026-05-05 21:36 | 48.99895 | 2.55897 | 360 ft | 12 kts | 280° |
| 2026-05-05 21:36 | 48.99893 | 2.55812 | 364 ft | 4 kts | 223° |
| 2026-05-05 21:36 | 48.99845 | 2.55805 | 366 ft | 12 kts | 180° |
| 2026-05-05 21:37 | 48.99749 | 2.55810 | 362 ft | 15 kts | 177° |
| 2026-05-05 21:37 | 48.99660 | 2.55819 | 360 ft | 11 kts | 176° |
| 2026-05-05 21:37 | 48.99605 | 2.55872 | 366 ft | 9 kts | 98° |
| 2026-05-05 21:37 | 48.99612 | 2.56051 | 365 ft | 35 kts | 85° |
| 2026-05-05 21:38 | 48.99655 | 2.56872 | 366 ft | 121 kts | 85° |
| 2026-05-05 21:38 | 48.99732 | 2.58541 | 510 ft | 181 kts | 82° |
| 2026-05-05 21:38 | 48.99800 | 2.60446 | 1665 ft | 178 kts | 80° |
| 2026-05-05 21:38 | 48.99919 | 2.62410 | 2388 ft | 201 kts | 78° |
| 2026-05-05 21:39 | 49.00137 | 2.64675 | 2583 ft | 229 kts | 76° |
| 2026-05-05 21:39 | 49.00317 | 2.67174 | 3071 ft | 244 kts | 82° |
| 2026-05-05 21:39 | 49.00430 | 2.69784 | 3751 ft | 251 kts | 84° |
| 2026-05-05 21:39 | 49.00551 | 2.72435 | 4472 ft | 255 kts | 83° |
| 2026-05-05 21:40 | 49.00675 | 2.75157 | 5188 ft | 260 kts | 84° |
| 2026-05-05 21:40 | 49.00660 | 2.77932 | 5956 ft | 265 kts | 94° |
| 2026-05-05 21:40 | 49.00414 | 2.80740 | 6704 ft | 269 kts | 97° |
| 2026-05-05 21:40 | 49.00121 | 2.83574 | 7465 ft | 273 kts | 98° |
| 2026-05-05 21:41 | 48.99826 | 2.86451 | 8248 ft | 277 kts | 98° |
| 2026-05-05 21:41 | 48.99530 | 2.89373 | 9056 ft | 281 kts | 98° |
| 2026-05-05 21:41 | 48.99233 | 2.92328 | 9786 ft | 285 kts | 99° |
| 2026-05-05 21:41 | 48.98927 | 2.95375 | 10308 ft | 299 kts | 99° |
| 2026-05-05 21:42 | 48.98621 | 2.98617 | 10646 ft | 319 kts | 98° |
| 2026-05-05 21:42 | 48.98340 | 3.02071 | 10988 ft | 338 kts | 97° |
| 2026-05-05 21:42 | 48.98046 | 3.05729 | 11322 ft | 356 kts | 97° |
| 2026-05-05 21:42 | 48.97738 | 3.09489 | 11782 ft | 368 kts | 98° |
| 2026-05-05 21:43 | 48.97412 | 3.13393 | 12422 ft | 374 kts | 98° |
| 2026-05-05 21:43 | 48.97081 | 3.17348 | 13121 ft | 379 kts | 98° |
| 2026-05-05 21:43 | 48.96744 | 3.21350 | 13804 ft | 383 kts | 98° |
| 2026-05-05 21:43 | 48.96400 | 3.25392 | 14430 ft | 387 kts | 98° |
| 2026-05-05 21:44 | 48.96050 | 3.29470 | 15083 ft | 390 kts | 98° |
| 2026-05-05 21:44 | 48.95696 | 3.33585 | 15724 ft | 394 kts | 98° |
| 2026-05-05 21:44 | 48.95338 | 3.37733 | 16366 ft | 397 kts | 98° |
| 2026-05-05 21:44 | 48.94974 | 3.41930 | 16994 ft | 401 kts | 98° |
| 2026-05-05 21:45 | 48.94607 | 3.46152 | 17635 ft | 405 kts | 98° |
| 2026-05-05 21:45 | 48.94234 | 3.50420 | 18265 ft | 408 kts | 98° |
| 2026-05-05 21:45 | 48.93984 | 3.53264 | 18667 ft | 410 kts | 98° |
| 2026-05-05 21:45 | 48.93797 | 3.55398 | 18988 ft | 411 kts | 98° |
| 2026-05-05 21:46 | 48.93501 | 3.59735 | 19648 ft | 413 kts | 95° |
| 2026-05-05 21:46 | 48.93297 | 3.64101 | 20300 ft | 415 kts | 95° |
| 2026-05-05 21:46 | 48.93092 | 3.68489 | 20948 ft | 418 kts | 95° |
| 2026-05-05 21:46 | 48.92873 | 3.72902 | 21592 ft | 420 kts | 95° |
| 2026-05-05 21:47 | 48.92646 | 3.77297 | 22217 ft | 422 kts | 95° |
| 2026-05-05 21:47 | 48.92407 | 3.81819 | 22842 ft | 425 kts | 95° |
| 2026-05-05 21:47 | 48.92168 | 3.86255 | 23457 ft | 428 kts | 95° |
| 2026-05-05 21:47 | 48.91922 | 3.90789 | 23957 ft | 431 kts | 95° |
| 2026-05-05 21:48 | 48.91671 | 3.95344 | 24457 ft | 434 kts | 95° |
| 2026-05-05 21:48 | 48.91416 | 3.99933 | 24952 ft | 437 kts | 96° |
| 2026-05-05 21:48 | 48.91158 | 4.04553 | 25464 ft | 440 kts | 96° |
| 2026-05-05 21:48 | 48.90896 | 4.09210 | 25957 ft | 442 kts | 96° |
| 2026-05-05 21:49 | 48.90630 | 4.13890 | 26453 ft | 445 kts | 96° |
| 2026-05-05 21:49 | 48.90309 | 4.18585 | 26933 ft | 448 kts | 99° |
| 2026-05-05 21:49 | 48.89601 | 4.23206 | 27414 ft | 449 kts | 109° |
| 2026-05-05 21:49 | 48.88371 | 4.27569 | 27890 ft | 451 kts | 117° |
| 2026-05-05 21:50 | 48.86866 | 4.31770 | 28377 ft | 454 kts | 119° |
| 2026-05-05 21:50 | 48.85312 | 4.35968 | 28823 ft | 457 kts | 119° |
| 2026-05-05 21:50 | 48.83754 | 4.40182 | 29284 ft | 459 kts | 119° |
| 2026-05-05 21:50 | 48.82209 | 4.44372 | 29688 ft | 462 kts | 119° |
| 2026-05-05 21:51 | 48.80628 | 4.48661 | 30049 ft | 465 kts | 119° |
| 2026-05-05 21:51 | 48.79041 | 4.52966 | 30363 ft | 468 kts | 119° |
| 2026-05-05 21:51 | 48.77447 | 4.57288 | 30669 ft | 471 kts | 119° |
| 2026-05-05 21:51 | 48.75839 | 4.61637 | 30968 ft | 474 kts | 120° |
| 2026-05-05 21:52 | 48.72599 | 4.70389 | 31632 ft | 477 kts | 120° |
| 2026-05-05 21:52 | 48.70992 | 4.74719 | 32026 ft | 477 kts | 120° |
| 2026-05-05 21:52 | 48.69365 | 4.79095 | 32405 ft | 477 kts | 120° |
| 2026-05-05 21:53 | 48.67739 | 4.83465 | 32770 ft | 477 kts | 120° |
| 2026-05-05 21:53 | 48.66103 | 4.87850 | 33154 ft | 477 kts | 120° |
| 2026-05-05 21:53 | 48.64468 | 4.92225 | 33479 ft | 478 kts | 121° |
| 2026-05-05 21:53 | 48.62832 | 4.96597 | 33830 ft | 478 kts | 121° |
| 2026-05-05 21:54 | 48.61192 | 5.00974 | 34095 ft | 479 kts | 121° |
| 2026-05-05 21:54 | 48.59547 | 5.05355 | 34348 ft | 480 kts | 121° |
| 2026-05-05 21:54 | 48.57898 | 5.09738 | 34604 ft | 480 kts | 121° |
| 2026-05-05 21:54 | 48.56246 | 5.14124 | 34853 ft | 481 kts | 121° |
| 2026-05-05 21:55 | 48.54588 | 5.18519 | 35099 ft | 482 kts | 121° |
| 2026-05-05 21:55 | 48.52921 | 5.22928 | 35341 ft | 483 kts | 121° |
| 2026-05-05 21:55 | 48.51256 | 5.27327 | 35583 ft | 483 kts | 121° |
| 2026-05-05 21:55 | 48.49585 | 5.31733 | 35832 ft | 484 kts | 121° |
| 2026-05-05 21:56 | 48.47913 | 5.36134 | 36062 ft | 484 kts | 121° |
| 2026-05-05 21:56 | 48.46235 | 5.40543 | 36293 ft | 485 kts | 122° |
| 2026-05-05 21:56 | 48.44546 | 5.44948 | 36528 ft | 485 kts | 122° |
| 2026-05-05 21:56 | 48.42849 | 5.49361 | 36745 ft | 486 kts | 122° |
| 2026-05-05 21:57 | 48.41158 | 5.53763 | 36972 ft | 486 kts | 122° |
| 2026-05-05 21:57 | 48.39487 | 5.58113 | 37197 ft | 487 kts | 122° |
| 2026-05-05 21:57 | 48.37791 | 5.62527 | 37408 ft | 487 kts | 122° |
| 2026-05-05 21:57 | 48.36094 | 5.66937 | 37634 ft | 487 kts | 122° |
| 2026-05-05 21:58 | 48.34395 | 5.71350 | 37828 ft | 488 kts | 122° |
| 2026-05-05 21:58 | 48.32694 | 5.75760 | 38029 ft | 488 kts | 122° |
| 2026-05-05 21:58 | 48.30989 | 5.80175 | 38237 ft | 489 kts | 123° |
| 2026-05-05 21:58 | 48.29363 | 5.84666 | 38423 ft | 490 kts | 119° |
| 2026-05-05 21:59 | 48.27879 | 5.89291 | 38599 ft | 491 kts | 117° |
| 2026-05-05 21:59 | 48.25526 | 5.97066 | 38818 ft | 493 kts | 117° |
| 2026-05-05 22:00 | 48.22648 | 6.06456 | 38857 ft | 495 kts | 117° |
| 2026-05-05 22:00 | 48.19701 | 6.15780 | 38856 ft | 494 kts | 118° |
| 2026-05-05 22:01 | 48.16716 | 6.25071 | 38854 ft | 494 kts | 118° |
| 2026-05-05 22:01 | 48.13724 | 6.34331 | 38860 ft | 494 kts | 118° |
| 2026-05-05 22:02 | 48.10721 | 6.43606 | 38859 ft | 494 kts | 118° |
| 2026-05-05 22:02 | 48.07712 | 6.52868 | 38867 ft | 494 kts | 118° |
| 2026-05-05 22:03 | 48.04722 | 6.62045 | 38872 ft | 494 kts | 119° |
| 2026-05-05 22:03 | 48.01703 | 6.71278 | 38874 ft | 494 kts | 119° |
| 2026-05-05 22:04 | 47.98679 | 6.80490 | 38875 ft | 494 kts | 119° |
| 2026-05-05 22:04 | 47.95646 | 6.89695 | 38874 ft | 494 kts | 119° |
| 2026-05-05 22:05 | 47.92607 | 6.98885 | 38875 ft | 493 kts | 119° |
| 2026-05-05 22:05 | 47.89560 | 7.08065 | 38876 ft | 493 kts | 119° |
| 2026-05-05 22:06 | 47.86531 | 7.17161 | 38883 ft | 493 kts | 120° |
| 2026-05-05 22:06 | 47.83469 | 7.26322 | 38870 ft | 493 kts | 120° |
| 2026-05-05 22:07 | 47.80402 | 7.35468 | 38878 ft | 493 kts | 120° |
| 2026-05-05 22:07 | 47.77340 | 7.44566 | 38880 ft | 494 kts | 120° |
| 2026-05-05 22:08 | 47.74198 | 7.53648 | 38880 ft | 492 kts | 124° |
| 2026-05-05 22:08 | 47.70349 | 7.62012 | 38881 ft | 489 kts | 129° |
| 2026-05-05 22:09 | 47.66339 | 7.70115 | 38882 ft | 489 kts | 130° |
| 2026-05-05 22:09 | 47.62275 | 7.78222 | 38888 ft | 489 kts | 130° |
| 2026-05-05 22:10 | 47.58205 | 7.86348 | 38888 ft | 490 kts | 130° |
| 2026-05-05 22:10 | 47.54167 | 7.94411 | 38898 ft | 490 kts | 130° |
| 2026-05-05 22:11 | 47.50106 | 8.02505 | 38900 ft | 489 kts | 130° |
| 2026-05-05 22:11 | 47.47425 | 8.07835 | 38902 ft | 489 kts | 130° |
| 2026-05-05 22:12 | 47.43365 | 8.15887 | 38909 ft | 488 kts | 130° |
| 2026-05-05 22:12 | 47.39300 | 8.23924 | 38909 ft | 488 kts | 130° |
| 2026-05-05 22:13 | 47.35232 | 8.31941 | 38906 ft | 488 kts | 130° |
| 2026-05-05 22:13 | 47.31185 | 8.39895 | 38911 ft | 488 kts | 130° |
| 2026-05-05 22:14 | 47.27103 | 8.47895 | 38908 ft | 488 kts | 130° |
| 2026-05-05 22:14 | 47.23047 | 8.55923 | 38908 ft | 489 kts | 129° |
| 2026-05-05 22:15 | 47.19065 | 8.64022 | 38909 ft | 489 kts | 129° |
| 2026-05-05 22:15 | 47.15079 | 8.72117 | 38911 ft | 489 kts | 129° |
| 2026-05-05 22:16 | 47.11094 | 8.80149 | 38910 ft | 489 kts | 130° |
| 2026-05-05 22:16 | 47.07072 | 8.88213 | 38909 ft | 489 kts | 130° |
| 2026-05-05 22:17 | 47.03039 | 8.96271 | 38910 ft | 489 kts | 130° |
| 2026-05-05 22:17 | 46.99002 | 9.04313 | 38913 ft | 489 kts | 130° |
| 2026-05-05 22:18 | 46.94980 | 9.12307 | 38917 ft | 490 kts | 130° |
| 2026-05-05 22:18 | 46.90927 | 9.20340 | 38919 ft | 491 kts | 130° |
| 2026-05-05 22:19 | 46.86870 | 9.28357 | 38917 ft | 490 kts | 130° |
| 2026-05-05 22:19 | 46.82826 | 9.36327 | 38915 ft | 491 kts | 130° |
| 2026-05-05 22:20 | 46.78754 | 9.44327 | 38924 ft | 491 kts | 130° |
| 2026-05-05 22:20 | 46.74671 | 9.52322 | 38931 ft | 490 kts | 130° |
| 2026-05-05 22:21 | 46.70595 | 9.60285 | 38955 ft | 490 kts | 130° |
| 2026-05-05 22:21 | 46.66510 | 9.68242 | 38973 ft | 490 kts | 130° |
| 2026-05-05 22:22 | 46.62424 | 9.76181 | 38983 ft | 489 kts | 130° |
| 2026-05-05 22:22 | 46.58370 | 9.84034 | 38990 ft | 488 kts | 131° |
| 2026-05-05 22:23 | 46.54284 | 9.91923 | 38993 ft | 488 kts | 131° |
| 2026-05-05 22:23 | 46.50196 | 9.99791 | 38990 ft | 487 kts | 131° |
| 2026-05-05 22:24 | 46.46151 | 10.07628 | 38991 ft | 488 kts | 129° |
| 2026-05-05 22:24 | 46.42283 | 10.15734 | 38985 ft | 488 kts | 128° |
| 2026-05-05 22:25 | 46.38467 | 10.23886 | 38991 ft | 489 kts | 128° |
| 2026-05-05 22:25 | 46.34608 | 10.32013 | 38992 ft | 489 kts | 128° |
| 2026-05-05 22:26 | 46.30726 | 10.40099 | 38992 ft | 489 kts | 128° |
| 2026-05-05 22:26 | 46.26831 | 10.48171 | 38997 ft | 489 kts | 128° |
| 2026-05-05 22:27 | 46.22928 | 10.56239 | 39005 ft | 489 kts | 128° |
| 2026-05-05 22:27 | 46.19025 | 10.64287 | 39005 ft | 489 kts | 128° |
| 2026-05-05 22:28 | 46.15115 | 10.72325 | 39017 ft | 490 kts | 128° |
| 2026-05-05 22:28 | 46.11215 | 10.80320 | 39017 ft | 490 kts | 129° |
| 2026-05-05 22:29 | 46.07288 | 10.88349 | 39024 ft | 490 kts | 128° |
| 2026-05-05 22:29 | 46.03353 | 10.96371 | 39021 ft | 491 kts | 129° |
| 2026-05-05 22:30 | 45.99401 | 11.04404 | 39008 ft | 491 kts | 129° |
| 2026-05-05 22:30 | 45.95446 | 11.12419 | 39007 ft | 492 kts | 129° |
| 2026-05-05 22:31 | 45.91476 | 11.20443 | 39008 ft | 492 kts | 129° |
| 2026-05-05 22:31 | 45.87494 | 11.28470 | 39012 ft | 493 kts | 129° |
| 2026-05-05 22:32 | 45.83536 | 11.36424 | 39012 ft | 493 kts | 129° |
| 2026-05-05 22:32 | 45.79536 | 11.44439 | 39014 ft | 494 kts | 129° |
| 2026-05-05 22:33 | 45.75531 | 11.52443 | 39003 ft | 494 kts | 129° |
| 2026-05-05 22:33 | 45.71520 | 11.60437 | 39003 ft | 494 kts | 129° |
| 2026-05-05 22:34 | 45.67497 | 11.68431 | 38996 ft | 495 kts | 129° |
| 2026-05-05 22:34 | 45.63463 | 11.76425 | 38993 ft | 495 kts | 129° |
| 2026-05-05 22:35 | 45.59419 | 11.84426 | 39003 ft | 496 kts | 130° |
| 2026-05-05 22:35 | 45.55394 | 11.92356 | 38994 ft | 496 kts | 130° |
| 2026-05-05 22:36 | 45.51350 | 12.00342 | 38998 ft | 497 kts | 129° |
| 2026-05-05 22:36 | 45.47443 | 12.08512 | 38978 ft | 499 kts | 128° |
| 2026-05-05 22:37 | 45.43569 | 12.16732 | 38988 ft | 499 kts | 128° |
| 2026-05-05 22:37 | 45.39670 | 12.24916 | 38986 ft | 500 kts | 128° |
| 2026-05-05 22:38 | 45.35742 | 12.33085 | 38983 ft | 500 kts | 128° |
| 2026-05-05 22:38 | 45.31803 | 12.41240 | 38991 ft | 501 kts | 128° |
| 2026-05-05 22:39 | 45.27870 | 12.49359 | 38982 ft | 502 kts | 128° |
| 2026-05-05 22:39 | 45.23902 | 12.57532 | 38977 ft | 502 kts | 128° |
| 2026-05-05 22:40 | 45.19924 | 12.65700 | 38972 ft | 503 kts | 128° |
| 2026-05-05 22:40 | 45.15945 | 12.73849 | 38970 ft | 503 kts | 128° |
| 2026-05-05 22:41 | 45.11952 | 12.82003 | 38972 ft | 503 kts | 128° |
| 2026-05-05 22:41 | 45.07987 | 12.90077 | 38973 ft | 503 kts | 128° |
| 2026-05-05 22:42 | 45.03987 | 12.98200 | 38971 ft | 503 kts | 128° |
| 2026-05-05 22:42 | 44.99961 | 13.06324 | 38970 ft | 503 kts | 130° |
| 2026-05-05 22:43 | 44.96122 | 13.12429 | 38972 ft | 498 kts | 139° |
| 2026-05-05 22:43 | 44.90330 | 13.20364 | 38977 ft | 498 kts | 140° |
| 2026-05-05 22:44 | 44.86103 | 13.25996 | 38984 ft | 499 kts | 141° |
| 2026-05-05 22:44 | 44.81087 | 13.32675 | 38987 ft | 500 kts | 140° |
| 2026-05-05 22:45 | 44.76037 | 13.39416 | 38985 ft | 500 kts | 140° |
| 2026-05-05 22:45 | 44.70984 | 13.46158 | 38987 ft | 500 kts | 140° |
| 2026-05-05 22:46 | 44.65921 | 13.52897 | 38988 ft | 500 kts | 140° |
| 2026-05-05 22:46 | 44.60861 | 13.59616 | 38993 ft | 500 kts | 140° |
| 2026-05-05 22:47 | 44.55791 | 13.66328 | 38995 ft | 501 kts | 140° |
| 2026-05-05 22:47 | 44.50754 | 13.72979 | 38993 ft | 500 kts | 140° |
| 2026-05-05 22:48 | 44.45682 | 13.79661 | 38997 ft | 500 kts | 140° |
| 2026-05-05 22:48 | 44.40606 | 13.86331 | 38996 ft | 500 kts | 140° |
| 2026-05-05 22:49 | 44.35524 | 13.92994 | 39003 ft | 500 kts | 140° |
| 2026-05-05 22:49 | 44.30470 | 13.99602 | 39002 ft | 501 kts | 141° |
| 2026-05-05 22:50 | 44.25377 | 14.06243 | 39004 ft | 501 kts | 141° |
| 2026-05-05 22:50 | 44.20276 | 14.12880 | 39010 ft | 502 kts | 141° |
| 2026-05-05 22:51 | 44.15162 | 14.19517 | 39008 ft | 502 kts | 141° |
| 2026-05-05 22:51 | 44.10039 | 14.26148 | 39012 ft | 503 kts | 141° |
| 2026-05-05 22:52 | 44.04915 | 14.32765 | 39015 ft | 503 kts | 141° |
| 2026-05-05 22:52 | 43.99773 | 14.39389 | 39017 ft | 503 kts | 141° |
| 2026-05-05 22:53 | 43.94661 | 14.45959 | 39015 ft | 503 kts | 141° |
| 2026-05-05 22:53 | 43.89508 | 14.52563 | 39015 ft | 504 kts | 141° |
| 2026-05-05 22:54 | 43.84355 | 14.59152 | 39018 ft | 504 kts | 141° |
| 2026-05-05 22:54 | 43.79192 | 14.65738 | 39021 ft | 504 kts | 141° |
| 2026-05-05 22:55 | 43.74028 | 14.72309 | 39019 ft | 504 kts | 141° |
| 2026-05-05 22:55 | 43.68901 | 14.78816 | 39019 ft | 504 kts | 141° |
| 2026-05-05 22:56 | 43.63726 | 14.85369 | 39017 ft | 504 kts | 141° |
| 2026-05-05 22:56 | 43.58537 | 14.91923 | 39017 ft | 504 kts | 141° |
| 2026-05-05 22:57 | 43.53393 | 14.98432 | 39024 ft | 505 kts | 139° |
| 2026-05-05 22:57 | 43.48501 | 15.05444 | 39024 ft | 507 kts | 135° |
| 2026-05-05 22:58 | 43.43757 | 15.12628 | 39017 ft | 507 kts | 135° |
| 2026-05-05 22:58 | 43.38957 | 15.19767 | 39023 ft | 507 kts | 136° |
| 2026-05-05 22:59 | 43.34147 | 15.26787 | 39035 ft | 507 kts | 136° |
| 2026-05-05 22:59 | 43.29285 | 15.33827 | 39023 ft | 508 kts | 136° |
| 2026-05-05 23:00 | 43.21979 | 15.44375 | 39029 ft | 508 kts | 136° |
| 2026-05-05 23:00 | 43.17113 | 15.51384 | 39026 ft | 508 kts | 136° |
| 2026-05-05 23:01 | 43.12236 | 15.58395 | 39028 ft | 508 kts | 136° |
| 2026-05-05 23:01 | 43.07350 | 15.65400 | 39031 ft | 508 kts | 136° |
| 2026-05-05 23:02 | 43.02484 | 15.72359 | 39029 ft | 509 kts | 136° |
| 2026-05-05 23:02 | 42.97581 | 15.79353 | 39032 ft | 509 kts | 136° |
| 2026-05-05 23:03 | 42.92680 | 15.86327 | 39029 ft | 509 kts | 136° |
| 2026-05-05 23:03 | 42.87764 | 15.93306 | 39032 ft | 510 kts | 136° |
| 2026-05-05 23:04 | 42.82873 | 16.00233 | 39035 ft | 510 kts | 136° |
| 2026-05-05 23:04 | 42.77948 | 16.07191 | 39032 ft | 510 kts | 136° |
| 2026-05-05 23:05 | 42.73013 | 16.14147 | 39036 ft | 510 kts | 136° |
| 2026-05-05 23:05 | 42.68071 | 16.21094 | 39035 ft | 510 kts | 136° |
| 2026-05-05 23:06 | 42.63132 | 16.28020 | 39035 ft | 510 kts | 136° |
| 2026-05-05 23:06 | 42.58187 | 16.34939 | 39035 ft | 510 kts | 136° |
| 2026-05-05 23:07 | 42.53242 | 16.41840 | 39036 ft | 510 kts | 136° |
| 2026-05-05 23:07 | 42.48318 | 16.48695 | 39036 ft | 510 kts | 136° |
| 2026-05-05 23:08 | 42.43355 | 16.55587 | 39039 ft | 510 kts | 136° |
| 2026-05-05 23:08 | 42.38391 | 16.62465 | 39036 ft | 510 kts | 136° |
| 2026-05-05 23:09 | 42.33432 | 16.69320 | 39037 ft | 510 kts | 136° |
| 2026-05-05 23:09 | 42.28463 | 16.76171 | 39036 ft | 510 kts | 136° |
| 2026-05-05 23:10 | 42.23483 | 16.83022 | 39038 ft | 510 kts | 136° |
| 2026-05-05 23:10 | 42.18500 | 16.89859 | 39038 ft | 511 kts | 136° |
| 2026-05-05 23:11 | 42.13544 | 16.96645 | 39037 ft | 511 kts | 136° |
| 2026-05-05 23:11 | 42.08553 | 17.03461 | 39039 ft | 511 kts | 136° |
| 2026-05-05 23:12 | 42.03553 | 17.10274 | 39042 ft | 511 kts | 136° |
| 2026-05-05 23:12 | 41.98570 | 17.17048 | 39042 ft | 511 kts | 136° |
| 2026-05-05 23:13 | 41.93497 | 17.23745 | 39044 ft | 510 kts | 141° |
| 2026-05-05 23:13 | 41.87738 | 17.29279 | 39049 ft | 508 kts | 149° |
| 2026-05-05 23:14 | 41.81825 | 17.34389 | 39046 ft | 508 kts | 150° |
| 2026-05-05 23:14 | 41.75844 | 17.39460 | 39051 ft | 508 kts | 150° |
| 2026-05-05 23:15 | 41.69869 | 17.44540 | 39049 ft | 508 kts | 149° |
| 2026-05-05 23:15 | 41.63912 | 17.49620 | 39046 ft | 508 kts | 149° |
| 2026-05-05 23:16 | 41.57982 | 17.54673 | 39051 ft | 508 kts | 149° |
| 2026-05-05 23:16 | 41.52010 | 17.59750 | 39049 ft | 508 kts | 149° |
| 2026-05-05 23:17 | 41.46036 | 17.64817 | 39051 ft | 508 kts | 149° |
| 2026-05-05 23:17 | 41.40101 | 17.69839 | 39053 ft | 508 kts | 149° |
| 2026-05-05 23:18 | 41.34123 | 17.74887 | 39052 ft | 508 kts | 149° |
| 2026-05-05 23:18 | 41.28142 | 17.79926 | 39066 ft | 509 kts | 149° |
| 2026-05-05 23:19 | 41.22178 | 17.84938 | 39061 ft | 509 kts | 149° |
| 2026-05-05 23:19 | 41.16185 | 17.89966 | 39051 ft | 509 kts | 149° |
| 2026-05-05 23:20 | 41.10190 | 17.94983 | 39062 ft | 509 kts | 149° |
| 2026-05-05 23:20 | 41.04193 | 17.99991 | 39057 ft | 509 kts | 149° |
| 2026-05-05 23:21 | 40.98235 | 18.04955 | 39064 ft | 509 kts | 149° |
| 2026-05-05 23:21 | 40.92231 | 18.09948 | 39062 ft | 509 kts | 149° |
| 2026-05-05 23:22 | 40.86221 | 18.14934 | 39052 ft | 510 kts | 149° |
| 2026-05-05 23:22 | 40.80243 | 18.19883 | 39058 ft | 510 kts | 149° |
| 2026-05-05 23:23 | 40.74222 | 18.24857 | 39059 ft | 510 kts | 149° |
| 2026-05-05 23:23 | 40.68206 | 18.29817 | 39062 ft | 510 kts | 150° |
| 2026-05-05 23:24 | 40.62190 | 18.34765 | 39062 ft | 510 kts | 150° |
| 2026-05-05 23:24 | 40.56169 | 18.39707 | 39062 ft | 510 kts | 150° |
| 2026-05-05 23:25 | 40.50138 | 18.44646 | 39067 ft | 510 kts | 150° |
| 2026-05-05 23:25 | 40.44148 | 18.49542 | 39068 ft | 510 kts | 150° |
| 2026-05-05 23:26 | 40.38107 | 18.54468 | 39076 ft | 510 kts | 150° |
| 2026-05-05 23:26 | 40.32072 | 18.59379 | 39077 ft | 511 kts | 150° |
| 2026-05-05 23:27 | 40.26029 | 18.64285 | 39085 ft | 511 kts | 150° |
| 2026-05-05 23:27 | 40.20019 | 18.69155 | 39084 ft | 511 kts | 150° |
| 2026-05-05 23:28 | 40.13964 | 18.74052 | 39088 ft | 512 kts | 150° |
| 2026-05-05 23:28 | 40.07901 | 18.78944 | 39092 ft | 512 kts | 150° |
| 2026-05-05 23:29 | 40.01831 | 18.83831 | 39095 ft | 513 kts | 150° |
| 2026-05-05 23:29 | 39.95754 | 18.88714 | 39098 ft | 513 kts | 150° |
| 2026-05-05 23:30 | 39.90694 | 18.92771 | 39092 ft | 513 kts | 150° |
| 2026-05-05 23:30 | 39.83614 | 18.98440 | 39100 ft | 514 kts | 150° |
| 2026-05-05 23:31 | 39.77828 | 19.03941 | 39100 ft | 516 kts | 143° |
| 2026-05-05 23:31 | 39.72187 | 19.09735 | 39102 ft | 516 kts | 142° |
| 2026-05-05 23:32 | 39.66575 | 19.15557 | 39097 ft | 516 kts | 142° |
| 2026-05-05 23:32 | 39.60989 | 19.21329 | 39097 ft | 517 kts | 142° |
| 2026-05-05 23:33 | 39.55351 | 19.27123 | 39100 ft | 517 kts | 143° |
| 2026-05-05 23:33 | 39.49709 | 19.32903 | 39095 ft | 517 kts | 143° |
| 2026-05-05 23:34 | 39.44062 | 19.38676 | 39099 ft | 517 kts | 143° |
| 2026-05-05 23:34 | 39.39361 | 19.43473 | 39098 ft | 517 kts | 143° |
| 2026-05-05 23:35 | 39.33710 | 19.49228 | 39100 ft | 517 kts | 143° |
| 2026-05-05 23:35 | 39.28051 | 19.54980 | 39102 ft | 517 kts | 143° |
| 2026-05-05 23:36 | 39.22433 | 19.60678 | 39108 ft | 516 kts | 143° |
| 2026-05-05 23:36 | 39.16771 | 19.66408 | 39110 ft | 516 kts | 143° |
| 2026-05-05 23:37 | 39.11117 | 19.72118 | 39113 ft | 516 kts | 143° |
| 2026-05-05 23:37 | 39.05462 | 19.77817 | 39117 ft | 516 kts | 143° |
| 2026-05-05 23:38 | 38.99849 | 19.83462 | 39120 ft | 515 kts | 143° |
| 2026-05-05 23:38 | 38.94192 | 19.89139 | 39123 ft | 515 kts | 143° |
| 2026-05-05 23:39 | 38.88533 | 19.94807 | 39126 ft | 515 kts | 143° |
| 2026-05-05 23:39 | 38.82871 | 20.00466 | 39125 ft | 515 kts | 143° |
| 2026-05-05 23:40 | 38.77206 | 20.06116 | 39123 ft | 516 kts | 143° |
| 2026-05-05 23:40 | 38.71575 | 20.11720 | 39129 ft | 516 kts | 143° |
| 2026-05-05 23:41 | 38.65904 | 20.17353 | 39129 ft | 516 kts | 143° |
| 2026-05-05 23:41 | 38.60223 | 20.22984 | 39131 ft | 516 kts | 143° |
| 2026-05-05 23:42 | 38.54533 | 20.28613 | 39134 ft | 517 kts | 143° |
| 2026-05-05 23:42 | 38.48877 | 20.34196 | 39132 ft | 517 kts | 143° |
| 2026-05-05 23:43 | 38.43180 | 20.39809 | 39130 ft | 517 kts | 143° |
| 2026-05-05 23:43 | 38.37474 | 20.45418 | 39130 ft | 518 kts | 143° |
| 2026-05-05 23:44 | 38.31767 | 20.51018 | 39133 ft | 518 kts | 143° |
| 2026-05-05 23:44 | 38.26050 | 20.56616 | 39125 ft | 518 kts | 143° |
| 2026-05-05 23:45 | 38.20364 | 20.62173 | 39128 ft | 518 kts | 143° |
| 2026-05-05 23:45 | 38.14634 | 20.67760 | 39129 ft | 519 kts | 143° |
| 2026-05-05 23:46 | 38.08902 | 20.73338 | 39131 ft | 519 kts | 143° |
| 2026-05-05 23:46 | 38.03161 | 20.78913 | 39132 ft | 519 kts | 144° |
| 2026-05-05 23:47 | 37.97413 | 20.84484 | 39131 ft | 520 kts | 144° |
| 2026-05-05 23:47 | 37.91658 | 20.90051 | 39137 ft | 521 kts | 144° |
| 2026-05-05 23:48 | 37.85922 | 20.95589 | 39140 ft | 522 kts | 144° |
| 2026-05-05 23:48 | 37.80144 | 21.01155 | 39141 ft | 522 kts | 144° |
| 2026-05-05 23:49 | 37.74358 | 21.06718 | 39140 ft | 523 kts | 144° |
| 2026-05-05 23:49 | 37.68545 | 21.12295 | 39137 ft | 524 kts | 144° |
| 2026-05-05 23:50 | 37.62767 | 21.17828 | 39135 ft | 524 kts | 144° |
| 2026-05-05 23:50 | 37.56943 | 21.23394 | 39128 ft | 525 kts | 144° |
| 2026-05-05 23:51 | 37.51116 | 21.28951 | 39129 ft | 526 kts | 144° |
| 2026-05-05 23:51 | 37.45312 | 21.34475 | 39128 ft | 526 kts | 144° |
| 2026-05-05 23:52 | 37.39458 | 21.40037 | 39125 ft | 527 kts | 144° |
| 2026-05-05 23:52 | 37.33597 | 21.45593 | 39127 ft | 528 kts | 144° |
| 2026-05-05 23:53 | 37.27722 | 21.51151 | 39130 ft | 528 kts | 144° |
| 2026-05-05 23:53 | 37.21873 | 21.56675 | 39132 ft | 529 kts | 144° |
| 2026-05-05 23:54 | 37.15991 | 21.62217 | 39131 ft | 529 kts | 144° |
| 2026-05-05 23:54 | 37.10091 | 21.67766 | 39129 ft | 530 kts | 144° |
| 2026-05-05 23:55 | 37.04223 | 21.73273 | 39127 ft | 530 kts | 144° |
| 2026-05-05 23:55 | 36.98314 | 21.78808 | 39126 ft | 530 kts | 144° |
| 2026-05-05 23:56 | 36.92394 | 21.84343 | 39123 ft | 531 kts | 144° |
| 2026-05-05 23:56 | 36.86477 | 21.89864 | 39124 ft | 531 kts | 144° |
| 2026-05-05 23:57 | 36.80544 | 21.95389 | 39110 ft | 531 kts | 144° |
| 2026-05-05 23:57 | 36.74659 | 22.00858 | 39107 ft | 531 kts | 144° |
| 2026-05-05 23:58 | 36.68728 | 22.06360 | 39107 ft | 531 kts | 144° |
| 2026-05-05 23:58 | 36.62799 | 22.11848 | 39105 ft | 531 kts | 144° |
| 2026-05-05 23:59 | 36.56869 | 22.17326 | 39105 ft | 531 kts | 144° |
| 2026-05-05 23:59 | 36.50956 | 22.22778 | 39097 ft | 531 kts | 144° |
| 2026-05-06 00:00 | 36.45013 | 22.28248 | 39095 ft | 531 kts | 144° |
| 2026-05-06 00:00 | 36.39071 | 22.33706 | 39094 ft | 531 kts | 144° |
| 2026-05-06 00:01 | 36.33125 | 22.39156 | 39091 ft | 531 kts | 144° |
| 2026-05-06 00:01 | 36.27178 | 22.44597 | 39090 ft | 531 kts | 144° |
| 2026-05-06 00:02 | 36.21261 | 22.50000 | 39091 ft | 531 kts | 144° |
| 2026-05-06 00:02 | 36.15303 | 22.55430 | 39091 ft | 531 kts | 144° |
| 2026-05-06 00:03 | 36.09350 | 22.60846 | 39084 ft | 531 kts | 144° |
| 2026-05-06 00:03 | 36.03393 | 22.66254 | 39088 ft | 531 kts | 145° |
| 2026-05-06 00:04 | 35.97438 | 22.71650 | 39094 ft | 531 kts | 145° |
| 2026-05-06 00:04 | 35.91508 | 22.77013 | 39091 ft | 531 kts | 145° |
| 2026-05-06 00:05 | 35.82560 | 22.85087 | 39090 ft | 531 kts | 145° |
| 2026-05-06 00:06 | 35.76592 | 22.90459 | 39092 ft | 531 kts | 145° |
| 2026-05-06 00:06 | 35.70651 | 22.95796 | 39093 ft | 531 kts | 145° |
| 2026-05-06 00:07 | 35.64674 | 23.01156 | 39096 ft | 530 kts | 145° |
| 2026-05-06 00:07 | 35.58736 | 23.06472 | 39096 ft | 530 kts | 145° |
| 2026-05-06 00:08 | 35.52764 | 23.11806 | 39100 ft | 530 kts | 145° |
| 2026-05-06 00:08 | 35.46786 | 23.17137 | 39104 ft | 530 kts | 145° |
| 2026-05-06 00:09 | 35.40846 | 23.22423 | 39101 ft | 530 kts | 145° |
| 2026-05-06 00:09 | 35.34852 | 23.27748 | 39106 ft | 531 kts | 146° |
| 2026-05-06 00:10 | 35.28870 | 23.33052 | 39106 ft | 531 kts | 146° |
| 2026-05-06 00:10 | 35.22922 | 23.38317 | 39105 ft | 531 kts | 146° |
| 2026-05-06 00:11 | 35.16933 | 23.43607 | 39107 ft | 530 kts | 146° |
| 2026-05-06 00:11 | 35.10943 | 23.48889 | 39111 ft | 530 kts | 146° |
| 2026-05-06 00:12 | 35.04942 | 23.54170 | 39097 ft | 531 kts | 146° |
| 2026-05-06 00:12 | 34.98945 | 23.59438 | 39093 ft | 531 kts | 146° |
| 2026-05-06 00:13 | 34.92984 | 23.64666 | 39104 ft | 531 kts | 146° |
| 2026-05-06 00:13 | 34.86983 | 23.69918 | 39100 ft | 531 kts | 146° |
| 2026-05-06 00:14 | 34.80977 | 23.75165 | 39096 ft | 531 kts | 146° |
| 2026-05-06 00:14 | 34.74967 | 23.80407 | 39098 ft | 531 kts | 146° |
| 2026-05-06 00:15 | 34.68960 | 23.85635 | 39098 ft | 531 kts | 146° |
| 2026-05-06 00:15 | 34.62985 | 23.90827 | 39098 ft | 532 kts | 146° |
| 2026-05-06 00:16 | 34.56961 | 23.96052 | 39102 ft | 532 kts | 146° |
| 2026-05-06 00:16 | 34.50936 | 24.01268 | 39096 ft | 532 kts | 146° |
| 2026-05-06 00:17 | 34.44945 | 24.06445 | 39098 ft | 531 kts | 146° |
| 2026-05-06 00:17 | 34.38921 | 24.11642 | 39099 ft | 531 kts | 146° |
| 2026-05-06 00:18 | 34.32897 | 24.16829 | 39095 ft | 531 kts | 146° |
| 2026-05-06 00:18 | 34.26878 | 24.22003 | 39099 ft | 531 kts | 146° |
| 2026-05-06 00:19 | 34.20848 | 24.27176 | 39096 ft | 531 kts | 146° |
| 2026-05-06 00:19 | 34.14816 | 24.32342 | 39097 ft | 531 kts | 147° |
| 2026-05-06 00:20 | 34.08819 | 24.37470 | 39099 ft | 531 kts | 147° |
| 2026-05-06 00:20 | 34.02781 | 24.42623 | 39099 ft | 531 kts | 147° |
| 2026-05-06 00:21 | 33.96999 | 24.48225 | 39099 ft | 533 kts | 140° |
| 2026-05-06 00:21 | 33.91478 | 24.54111 | 39099 ft | 533 kts | 139° |
| 2026-05-06 00:22 | 33.85960 | 24.60072 | 39101 ft | 533 kts | 139° |
| 2026-05-06 00:22 | 33.80434 | 24.66025 | 39100 ft | 533 kts | 140° |
| 2026-05-06 00:23 | 33.74901 | 24.71957 | 39100 ft | 533 kts | 140° |
| 2026-05-06 00:23 | 33.69360 | 24.77879 | 39101 ft | 533 kts | 140° |
| 2026-05-06 00:24 | 33.63821 | 24.83788 | 39102 ft | 533 kts | 140° |
| 2026-05-06 00:24 | 33.58278 | 24.89691 | 39100 ft | 532 kts | 140° |
| 2026-05-06 00:25 | 33.52760 | 24.95557 | 39100 ft | 532 kts | 140° |
| 2026-05-06 00:25 | 33.47212 | 25.01446 | 39099 ft | 532 kts | 140° |
| 2026-05-06 00:26 | 33.41656 | 25.07332 | 39101 ft | 533 kts | 140° |
| 2026-05-06 00:26 | 33.36098 | 25.13209 | 39094 ft | 532 kts | 140° |
| 2026-05-06 00:27 | 33.30567 | 25.19048 | 39100 ft | 533 kts | 140° |
| 2026-05-06 00:27 | 33.24998 | 25.24917 | 39102 ft | 533 kts | 140° |
| 2026-05-06 00:28 | 33.19441 | 25.30762 | 39099 ft | 533 kts | 140° |
| 2026-05-06 00:28 | 33.14814 | 25.35621 | 39104 ft | 533 kts | 140° |
| 2026-05-06 00:29 | 33.08338 | 25.42411 | 39105 ft | 533 kts | 140° |
| 2026-05-06 00:29 | 33.03673 | 25.47293 | 39102 ft | 533 kts | 140° |
| 2026-05-06 00:30 | 32.98122 | 25.53093 | 39097 ft | 532 kts | 140° |
| 2026-05-06 00:30 | 32.92552 | 25.58903 | 39099 ft | 533 kts | 140° |
| 2026-05-06 00:31 | 32.86971 | 25.64714 | 39101 ft | 533 kts | 140° |